sensor_id;sensor_type;location;lat;lon;timestamp;P1;durP1;ratioP1;P2;durP2;ratioP2
4786;SDS011;62338;48.832;9.422;2023-05-10T00:01:49;69.07;;;8.23;;
4786;SDS011;62338;48.832;9.422;2023-05-10T00:03:50;3.67;;;2.37;;
4786;SDS011;62338;48.832;9.422;2023-05-10T00:05:52;3.10;;;1.87;;
4786;SDS011;62338;48.832;9.422;2023-05-10T00:07:54;2.93;;;1.67;;
4786;SDS011;62338;48.832;9.422;2023-05-10T00:09:56;3.83;;;1.87;;
4786;SDS011;62338;48.832;9.422;2023-05-10T00:11:58;4.20;;;1.90;;
4786;SDS011;62338;48.832;9.422;2023-05-10T00:14:00;3.17;;;2.00;;
4786;SDS011;62338;48.832;9.422;2023-05-10T00:16:02;4.17;;;2.27;;
4786;SDS011;62338;48.832;9.422;2023-05-10T00:18:04;7.43;;;2.93;;
4786;SDS011;62338;48.832;9.422;2023-05-10T00:20:06;2.83;;;1.87;;
4786;SDS011;62338;48.832;9.422;2023-05-10T00:22:08;3.87;;;1.43;;
4786;SDS011;62338;48.832;9.422;2023-05-10T00:24:10;2.87;;;1.70;;
4786;SDS011;62338;48.832;9.422;2023-05-10T00:26:12;2.17;;;1.30;;
4786;SDS011;62338;48.832;9.422;2023-05-10T00:28:13;2.27;;;1.30;;
4786;SDS011;62338;48.832;9.422;2023-05-10T00:30:15;2.70;;;1.60;;
4786;SDS011;62338;48.832;9.422;2023-05-10T00:32:17;2.30;;;1.30;;
4786;SDS011;62338;48.832;9.422;2023-05-10T00:34:19;1.60;;;0.90;;
4786;SDS011;62338;48.832;9.422;2023-05-10T00:36:21;2.57;;;1.13;;
4786;SDS011;62338;48.832;9.422;2023-05-10T00:38:22;1.80;;;1.00;;
4786;SDS011;62338;48.832;9.422;2023-05-10T00:40:24;1.70;;;0.90;;
4786;SDS011;62338;48.832;9.422;2023-05-10T00:42:26;2.47;;;1.40;;
4786;SDS011;62338;48.832;9.422;2023-05-10T00:44:28;1.50;;;0.80;;
4786;SDS011;62338;48.832;9.422;2023-05-10T00:46:29;1.60;;;0.80;;
4786;SDS011;62338;48.832;9.422;2023-05-10T00:48:32;1.80;;;0.97;;
4786;SDS011;62338;48.832;9.422;2023-05-10T00:50:33;1.87;;;0.80;;
4786;SDS011;62338;48.832;9.422;2023-05-10T00:52:35;1.50;;;0.80;;
4786;SDS011;62338;48.832;9.422;2023-05-10T00:54:38;1.80;;;0.90;;
4786;SDS011;62338;48.832;9.422;2023-05-10T00:56:40;1.93;;;1.00;;
4786;SDS011;62338;48.832;9.422;2023-05-10T00:58:42;1.90;;;0.93;;
4786;SDS011;62338;48.832;9.422;2023-05-10T01:00:44;1.60;;;0.83;;
4786;SDS011;62338;48.832;9.422;2023-05-10T01:02:48;2.00;;;1.10;;
4786;SDS011;62338;48.832;9.422;2023-05-10T01:04:51;1.90;;;1.00;;
4786;SDS011;62338;48.832;9.422;2023-05-10T01:06:53;2.43;;;0.90;;
4786;SDS011;62338;48.832;9.422;2023-05-10T01:08:55;2.47;;;0.90;;
4786;SDS011;62338;48.832;9.422;2023-05-10T01:10:57;2.30;;;1.23;;
4786;SDS011;62338;48.832;9.422;2023-05-10T01:12:59;2.00;;;1.17;;
4786;SDS011;62338;48.832;9.422;2023-05-10T01:15:02;2.27;;;1.23;;
4786;SDS011;62338;48.832;9.422;2023-05-10T01:17:05;2.27;;;1.27;;
4786;SDS011;62338;48.832;9.422;2023-05-10T01:19:12;2.13;;;1.30;;
4786;SDS011;62338;48.832;9.422;2023-05-10T01:21:38;2.30;;;1.40;;
4786;SDS011;62338;48.832;9.422;2023-05-10T01:34:03;3.27;;;1.60;;
4786;SDS011;62338;48.832;9.422;2023-05-10T01:36:16;2.50;;;1.53;;
4786;SDS011;62338;48.832;9.422;2023-05-10T01:38:41;2.87;;;1.70;;
4786;SDS011;62338;48.832;9.422;2023-05-10T01:40:59;2.37;;;1.50;;
4786;SDS011;62338;48.832;9.422;2023-05-10T01:43:03;3.30;;;1.80;;
4786;SDS011;62338;48.832;9.422;2023-05-10T01:45:14;2.83;;;1.63;;
4786;SDS011;62338;48.832;9.422;2023-05-10T01:47:38;3.40;;;1.70;;
4786;SDS011;62338;48.832;9.422;2023-05-10T01:49:45;3.50;;;1.87;;
4786;SDS011;62338;48.832;9.422;2023-05-10T01:51:52;2.90;;;1.87;;
4786;SDS011;62338;48.832;9.422;2023-05-10T01:54:01;3.10;;;2.00;;
4786;SDS011;62338;48.832;9.422;2023-05-10T01:56:04;2.70;;;1.57;;
4786;SDS011;62338;48.832;9.422;2023-05-10T01:58:09;2.77;;;1.77;;
4786;SDS011;62338;48.832;9.422;2023-05-10T02:00:13;3.83;;;1.97;;
4786;SDS011;62338;48.832;9.422;2023-05-10T02:02:17;2.63;;;1.53;;
4786;SDS011;62338;48.832;9.422;2023-05-10T02:04:21;3.60;;;2.00;;
4786;SDS011;62338;48.832;9.422;2023-05-10T02:06:25;3.73;;;2.10;;
4786;SDS011;62338;48.832;9.422;2023-05-10T02:08:28;3.40;;;2.00;;
4786;SDS011;62338;48.832;9.422;2023-05-10T02:10:31;2.83;;;1.70;;
4786;SDS011;62338;48.832;9.422;2023-05-10T02:12:35;4.30;;;2.47;;
4786;SDS011;62338;48.832;9.422;2023-05-10T02:14:40;5.00;;;2.30;;
4786;SDS011;62338;48.832;9.422;2023-05-10T02:16:43;4.77;;;2.37;;
4786;SDS011;62338;48.832;9.422;2023-05-10T02:18:47;3.63;;;2.10;;
4786;SDS011;62338;48.832;9.422;2023-05-10T02:20:59;4.63;;;2.70;;
4786;SDS011;62338;48.832;9.422;2023-05-10T02:23:03;3.77;;;2.70;;
4786;SDS011;62338;48.832;9.422;2023-05-10T02:25:05;4.00;;;2.30;;
4786;SDS011;62338;48.832;9.422;2023-05-10T02:27:09;4.13;;;2.67;;
4786;SDS011;62338;48.832;9.422;2023-05-10T02:29:13;4.13;;;2.47;;
4786;SDS011;62338;48.832;9.422;2023-05-10T02:31:16;6.27;;;2.57;;
4786;SDS011;62338;48.832;9.422;2023-05-10T02:33:19;4.50;;;2.33;;
4786;SDS011;62338;48.832;9.422;2023-05-10T02:35:23;4.17;;;2.70;;
4786;SDS011;62338;48.832;9.422;2023-05-10T02:37:27;4.00;;;2.37;;
4786;SDS011;62338;48.832;9.422;2023-05-10T02:39:29;3.87;;;2.33;;
4786;SDS011;62338;48.832;9.422;2023-05-10T02:41:33;6.67;;;2.77;;
4786;SDS011;62338;48.832;9.422;2023-05-10T02:43:35;4.80;;;2.10;;
4786;SDS011;62338;48.832;9.422;2023-05-10T02:45:38;8.50;;;2.30;;
4786;SDS011;62338;48.832;9.422;2023-05-10T02:47:41;4.30;;;2.50;;
4786;SDS011;62338;48.832;9.422;2023-05-10T02:49:43;4.27;;;2.27;;
4786;SDS011;62338;48.832;9.422;2023-05-10T02:51:47;3.83;;;2.00;;
4786;SDS011;62338;48.832;9.422;2023-05-10T02:53:52;4.57;;;2.33;;
4786;SDS011;62338;48.832;9.422;2023-05-10T02:55:57;3.27;;;2.10;;
4786;SDS011;62338;48.832;9.422;2023-05-10T02:58:02;3.50;;;1.97;;
4786;SDS011;62338;48.832;9.422;2023-05-10T03:00:04;5.80;;;2.30;;
4786;SDS011;62338;48.832;9.422;2023-05-10T03:02:07;4.30;;;2.40;;
4786;SDS011;62338;48.832;9.422;2023-05-10T03:04:09;3.70;;;2.20;;
4786;SDS011;62338;48.832;9.422;2023-05-10T03:06:11;4.27;;;2.00;;
4786;SDS011;62338;48.832;9.422;2023-05-10T03:08:13;4.07;;;2.10;;
4786;SDS011;62338;48.832;9.422;2023-05-10T03:10:15;3.53;;;2.17;;
4786;SDS011;62338;48.832;9.422;2023-05-10T03:12:21;4.00;;;2.37;;
4786;SDS011;62338;48.832;9.422;2023-05-10T03:14:54;3.17;;;2.07;;
4786;SDS011;62338;48.832;9.422;2023-05-10T03:17:06;3.43;;;2.23;;
4786;SDS011;62338;48.832;9.422;2023-05-10T03:19:30;3.40;;;2.23;;
4786;SDS011;62338;48.832;9.422;2023-05-10T03:21:39;2.97;;;2.13;;
4786;SDS011;62338;48.832;9.422;2023-05-10T03:23:47;5.00;;;2.63;;
4786;SDS011;62338;48.832;9.422;2023-05-10T03:25:57;3.20;;;2.10;;
4786;SDS011;62338;48.832;9.422;2023-05-10T03:28:00;7.67;;;3.47;;
4786;SDS011;62338;48.832;9.422;2023-05-10T03:30:03;5.03;;;2.30;;
4786;SDS011;62338;48.832;9.422;2023-05-10T03:32:08;5.20;;;2.40;;
4786;SDS011;62338;48.832;9.422;2023-05-10T03:34:10;6.03;;;3.40;;
4786;SDS011;62338;48.832;9.422;2023-05-10T03:36:12;4.60;;;2.83;;
4786;SDS011;62338;48.832;9.422;2023-05-10T03:38:14;4.90;;;2.93;;
4786;SDS011;62338;48.832;9.422;2023-05-10T03:40:16;5.47;;;3.17;;
4786;SDS011;62338;48.832;9.422;2023-05-10T03:42:18;6.73;;;3.50;;
4786;SDS011;62338;48.832;9.422;2023-05-10T03:44:20;7.40;;;4.10;;
4786;SDS011;62338;48.832;9.422;2023-05-10T03:46:22;5.70;;;3.33;;
4786;SDS011;62338;48.832;9.422;2023-05-10T03:48:23;7.77;;;3.80;;
4786;SDS011;62338;48.832;9.422;2023-05-10T03:50:25;6.43;;;4.37;;
4786;SDS011;62338;48.832;9.422;2023-05-10T03:52:27;5.33;;;3.53;;
4786;SDS011;62338;48.832;9.422;2023-05-10T03:54:29;9.67;;;4.53;;
4786;SDS011;62338;48.832;9.422;2023-05-10T03:56:30;7.87;;;4.63;;
4786;SDS011;62338;48.832;9.422;2023-05-10T03:58:32;6.10;;;3.70;;
4786;SDS011;62338;48.832;9.422;2023-05-10T04:00:34;7.30;;;3.90;;
4786;SDS011;62338;48.832;9.422;2023-05-10T04:02:36;8.30;;;4.27;;
4786;SDS011;62338;48.832;9.422;2023-05-10T04:04:38;6.10;;;3.83;;
4786;SDS011;62338;48.832;9.422;2023-05-10T04:06:40;5.90;;;2.63;;
4786;SDS011;62338;48.832;9.422;2023-05-10T04:08:42;6.50;;;3.17;;
4786;SDS011;62338;48.832;9.422;2023-05-10T04:10:44;4.37;;;2.60;;
4786;SDS011;62338;48.832;9.422;2023-05-10T04:12:45;7.17;;;3.27;;
4786;SDS011;62338;48.832;9.422;2023-05-10T04:14:47;4.53;;;2.60;;
4786;SDS011;62338;48.832;9.422;2023-05-10T04:16:49;5.00;;;2.37;;
4786;SDS011;62338;48.832;9.422;2023-05-10T04:18:50;7.17;;;2.70;;
4786;SDS011;62338;48.832;9.422;2023-05-10T04:20:52;4.03;;;2.70;;
4786;SDS011;62338;48.832;9.422;2023-05-10T04:22:54;4.33;;;2.60;;
4786;SDS011;62338;48.832;9.422;2023-05-10T04:24:56;3.57;;;2.57;;
4786;SDS011;62338;48.832;9.422;2023-05-10T04:26:57;3.53;;;2.03;;
4786;SDS011;62338;48.832;9.422;2023-05-10T04:28:59;4.10;;;2.57;;
4786;SDS011;62338;48.832;9.422;2023-05-10T04:31:01;3.77;;;2.50;;
4786;SDS011;62338;48.832;9.422;2023-05-10T04:33:04;5.30;;;2.87;;
4786;SDS011;62338;48.832;9.422;2023-05-10T04:35:06;8.10;;;2.43;;
4786;SDS011;62338;48.832;9.422;2023-05-10T04:37:08;4.17;;;2.70;;
4786;SDS011;62338;48.832;9.422;2023-05-10T04:39:10;4.70;;;2.73;;
4786;SDS011;62338;48.832;9.422;2023-05-10T04:41:11;4.80;;;2.80;;
4786;SDS011;62338;48.832;9.422;2023-05-10T04:43:13;6.63;;;2.50;;
4786;SDS011;62338;48.832;9.422;2023-05-10T04:45:15;5.50;;;2.33;;
4786;SDS011;62338;48.832;9.422;2023-05-10T04:47:17;4.60;;;2.87;;
4786;SDS011;62338;48.832;9.422;2023-05-10T04:49:19;4.13;;;2.80;;
4786;SDS011;62338;48.832;9.422;2023-05-10T04:51:21;4.57;;;2.80;;
4786;SDS011;62338;48.832;9.422;2023-05-10T04:53:23;5.63;;;3.40;;
4786;SDS011;62338;48.832;9.422;2023-05-10T04:55:25;3.67;;;2.80;;
4786;SDS011;62338;48.832;9.422;2023-05-10T04:57:27;4.20;;;2.60;;
4786;SDS011;62338;48.832;9.422;2023-05-10T04:59:29;3.93;;;2.50;;
4786;SDS011;62338;48.832;9.422;2023-05-10T05:01:31;4.70;;;2.70;;
4786;SDS011;62338;48.832;9.422;2023-05-10T05:03:33;7.13;;;2.67;;
4786;SDS011;62338;48.832;9.422;2023-05-10T05:05:35;3.90;;;2.63;;
4786;SDS011;62338;48.832;9.422;2023-05-10T05:07:36;3.40;;;1.93;;
4786;SDS011;62338;48.832;9.422;2023-05-10T05:09:39;2.80;;;1.87;;
4786;SDS011;62338;48.832;9.422;2023-05-10T05:11:41;3.43;;;2.10;;
4786;SDS011;62338;48.832;9.422;2023-05-10T05:13:42;3.03;;;1.80;;
4786;SDS011;62338;48.832;9.422;2023-05-10T05:15:44;3.17;;;2.10;;
4786;SDS011;62338;48.832;9.422;2023-05-10T05:17:47;3.53;;;2.03;;
4786;SDS011;62338;48.832;9.422;2023-05-10T05:19:48;2.53;;;1.70;;
4786;SDS011;62338;48.832;9.422;2023-05-10T05:21:50;3.60;;;2.10;;
4786;SDS011;62338;48.832;9.422;2023-05-10T05:23:52;6.00;;;2.30;;
4786;SDS011;62338;48.832;9.422;2023-05-10T05:25:54;4.00;;;2.30;;
4786;SDS011;62338;48.832;9.422;2023-05-10T05:27:55;4.70;;;2.27;;
4786;SDS011;62338;48.832;9.422;2023-05-10T05:29:57;2.77;;;1.97;;
4786;SDS011;62338;48.832;9.422;2023-05-10T05:31:59;3.00;;;2.00;;
4786;SDS011;62338;48.832;9.422;2023-05-10T05:34:01;3.03;;;1.97;;
4786;SDS011;62338;48.832;9.422;2023-05-10T05:36:03;7.70;;;2.03;;
4786;SDS011;62338;48.832;9.422;2023-05-10T05:38:05;3.40;;;2.23;;
4786;SDS011;62338;48.832;9.422;2023-05-10T05:40:07;3.47;;;2.20;;
4786;SDS011;62338;48.832;9.422;2023-05-10T05:42:13;4.00;;;2.47;;
4786;SDS011;62338;48.832;9.422;2023-05-10T05:44:15;3.17;;;2.07;;
4786;SDS011;62338;48.832;9.422;2023-05-10T05:46:17;4.07;;;2.10;;
4786;SDS011;62338;48.832;9.422;2023-05-10T05:48:19;2.77;;;1.63;;
4786;SDS011;62338;48.832;9.422;2023-05-10T05:50:21;3.20;;;1.90;;
4786;SDS011;62338;48.832;9.422;2023-05-10T05:52:22;6.07;;;2.17;;
4786;SDS011;62338;48.832;9.422;2023-05-10T05:54:24;3.10;;;2.30;;
4786;SDS011;62338;48.832;9.422;2023-05-10T05:56:26;3.67;;;2.30;;
4786;SDS011;62338;48.832;9.422;2023-05-10T05:58:28;4.70;;;2.47;;
4786;SDS011;62338;48.832;9.422;2023-05-10T06:00:30;6.40;;;2.33;;
4786;SDS011;62338;48.832;9.422;2023-05-10T06:02:32;2.70;;;1.70;;
4786;SDS011;62338;48.832;9.422;2023-05-10T06:04:34;3.03;;;1.90;;
4786;SDS011;62338;48.832;9.422;2023-05-10T06:06:36;2.40;;;1.70;;
4786;SDS011;62338;48.832;9.422;2023-05-10T06:08:37;3.70;;;2.40;;
4786;SDS011;62338;48.832;9.422;2023-05-10T06:10:39;3.10;;;2.10;;
4786;SDS011;62338;48.832;9.422;2023-05-10T06:12:40;3.37;;;1.83;;
4786;SDS011;62338;48.832;9.422;2023-05-10T06:14:42;3.50;;;2.13;;
4786;SDS011;62338;48.832;9.422;2023-05-10T06:16:44;3.37;;;2.23;;
4786;SDS011;62338;48.832;9.422;2023-05-10T06:18:46;5.10;;;2.37;;
4786;SDS011;62338;48.832;9.422;2023-05-10T06:20:49;3.77;;;2.17;;
4786;SDS011;62338;48.832;9.422;2023-05-10T06:22:50;3.30;;;2.07;;
4786;SDS011;62338;48.832;9.422;2023-05-10T06:24:52;3.37;;;2.00;;
4786;SDS011;62338;48.832;9.422;2023-05-10T06:26:54;4.20;;;2.30;;
4786;SDS011;62338;48.832;9.422;2023-05-10T06:28:56;2.97;;;1.90;;
4786;SDS011;62338;48.832;9.422;2023-05-10T06:30:57;2.90;;;1.77;;
4786;SDS011;62338;48.832;9.422;2023-05-10T06:32:59;2.80;;;1.80;;
4786;SDS011;62338;48.832;9.422;2023-05-10T06:35:01;3.17;;;1.90;;
4786;SDS011;62338;48.832;9.422;2023-05-10T06:37:03;4.10;;;1.70;;
4786;SDS011;62338;48.832;9.422;2023-05-10T06:39:04;3.37;;;2.00;;
4786;SDS011;62338;48.832;9.422;2023-05-10T06:41:06;3.10;;;2.13;;
4786;SDS011;62338;48.832;9.422;2023-05-10T06:43:08;3.20;;;2.03;;
4786;SDS011;62338;48.832;9.422;2023-05-10T06:45:11;3.20;;;2.20;;
4786;SDS011;62338;48.832;9.422;2023-05-10T06:47:12;6.87;;;2.27;;
4786;SDS011;62338;48.832;9.422;2023-05-10T06:49:14;2.73;;;1.80;;
4786;SDS011;62338;48.832;9.422;2023-05-10T06:51:16;3.60;;;2.13;;
4786;SDS011;62338;48.832;9.422;2023-05-10T06:53:19;2.73;;;1.73;;
4786;SDS011;62338;48.832;9.422;2023-05-10T06:55:20;4.40;;;2.20;;
4786;SDS011;62338;48.832;9.422;2023-05-10T06:57:22;3.83;;;2.53;;
4786;SDS011;62338;48.832;9.422;2023-05-10T06:59:30;3.37;;;2.17;;
4786;SDS011;62338;48.832;9.422;2023-05-10T07:01:32;6.30;;;2.87;;
4786;SDS011;62338;48.832;9.422;2023-05-10T07:03:34;3.33;;;1.90;;
4786;SDS011;62338;48.832;9.422;2023-05-10T07:05:36;3.00;;;2.17;;
4786;SDS011;62338;48.832;9.422;2023-05-10T07:07:38;5.07;;;2.97;;
4786;SDS011;62338;48.832;9.422;2023-05-10T07:09:40;17.17;;;2.37;;
4786;SDS011;62338;48.832;9.422;2023-05-10T07:11:41;7.77;;;2.60;;
4786;SDS011;62338;48.832;9.422;2023-05-10T07:13:43;3.70;;;2.30;;
4786;SDS011;62338;48.832;9.422;2023-05-10T07:15:47;3.43;;;2.17;;
4786;SDS011;62338;48.832;9.422;2023-05-10T07:17:49;5.10;;;2.40;;
4786;SDS011;62338;48.832;9.422;2023-05-10T07:19:51;3.60;;;2.23;;
4786;SDS011;62338;48.832;9.422;2023-05-10T07:21:53;3.03;;;1.50;;
4786;SDS011;62338;48.832;9.422;2023-05-10T07:23:54;7.83;;;1.60;;
4786;SDS011;62338;48.832;9.422;2023-05-10T07:25:56;3.90;;;1.57;;
4786;SDS011;62338;48.832;9.422;2023-05-10T07:27:58;2.73;;;1.93;;
4786;SDS011;62338;48.832;9.422;2023-05-10T07:30:00;3.40;;;1.80;;
4786;SDS011;62338;48.832;9.422;2023-05-10T07:32:02;3.47;;;1.93;;
4786;SDS011;62338;48.832;9.422;2023-05-10T07:34:04;2.40;;;1.60;;
4786;SDS011;62338;48.832;9.422;2023-05-10T07:36:06;2.17;;;1.43;;
4786;SDS011;62338;48.832;9.422;2023-05-10T07:38:08;2.90;;;1.70;;
4786;SDS011;62338;48.832;9.422;2023-05-10T07:40:12;2.90;;;1.83;;
4786;SDS011;62338;48.832;9.422;2023-05-10T07:42:13;2.50;;;1.47;;
4786;SDS011;62338;48.832;9.422;2023-05-10T07:44:15;3.40;;;1.40;;
4786;SDS011;62338;48.832;9.422;2023-05-10T07:46:19;2.43;;;1.47;;
4786;SDS011;62338;48.832;9.422;2023-05-10T07:48:21;2.57;;;1.60;;
4786;SDS011;62338;48.832;9.422;2023-05-10T07:50:23;2.43;;;1.57;;
4786;SDS011;62338;48.832;9.422;2023-05-10T07:52:25;5.40;;;1.37;;
4786;SDS011;62338;48.832;9.422;2023-05-10T07:54:27;5.77;;;1.50;;
4786;SDS011;62338;48.832;9.422;2023-05-10T07:56:29;2.73;;;1.53;;
4786;SDS011;62338;48.832;9.422;2023-05-10T07:58:33;2.83;;;1.20;;
4786;SDS011;62338;48.832;9.422;2023-05-10T08:00:34;2.67;;;1.23;;
4786;SDS011;62338;48.832;9.422;2023-05-10T08:02:37;3.53;;;1.33;;
4786;SDS011;62338;48.832;9.422;2023-05-10T08:04:39;3.07;;;1.50;;
4786;SDS011;62338;48.832;9.422;2023-05-10T08:06:41;2.27;;;1.40;;
4786;SDS011;62338;48.832;9.422;2023-05-10T08:08:43;5.10;;;1.10;;
4786;SDS011;62338;48.832;9.422;2023-05-10T08:10:46;3.40;;;1.53;;
4786;SDS011;62338;48.832;9.422;2023-05-10T08:12:48;1.90;;;1.20;;
4786;SDS011;62338;48.832;9.422;2023-05-10T08:14:50;2.33;;;1.13;;
4786;SDS011;62338;48.832;9.422;2023-05-10T08:16:51;2.60;;;1.57;;
4786;SDS011;62338;48.832;9.422;2023-05-10T08:18:53;2.90;;;1.40;;
4786;SDS011;62338;48.832;9.422;2023-05-10T08:20:56;2.10;;;1.23;;
4786;SDS011;62338;48.832;9.422;2023-05-10T08:22:58;2.13;;;1.30;;
4786;SDS011;62338;48.832;9.422;2023-05-10T08:24:59;1.90;;;1.10;;
4786;SDS011;62338;48.832;9.422;2023-05-10T08:27:02;2.03;;;1.10;;
4786;SDS011;62338;48.832;9.422;2023-05-10T08:29:04;1.90;;;1.10;;
4786;SDS011;62338;48.832;9.422;2023-05-10T08:31:05;2.90;;;1.40;;
4786;SDS011;62338;48.832;9.422;2023-05-10T08:33:07;4.03;;;1.27;;
4786;SDS011;62338;48.832;9.422;2023-05-10T08:35:09;2.53;;;1.27;;
4786;SDS011;62338;48.832;9.422;2023-05-10T08:37:11;1.97;;;1.00;;
4786;SDS011;62338;48.832;9.422;2023-05-10T08:39:14;2.07;;;1.00;;
4786;SDS011;62338;48.832;9.422;2023-05-10T08:41:30;3.43;;;1.00;;
4786;SDS011;62338;48.832;9.422;2023-05-10T08:43:34;3.53;;;2.30;;
4786;SDS011;62338;48.832;9.422;2023-05-10T08:45:38;2.57;;;1.20;;
4786;SDS011;62338;48.832;9.422;2023-05-10T08:47:41;2.00;;;1.10;;
4786;SDS011;62338;48.832;9.422;2023-05-10T08:49:43;3.70;;;1.10;;
4786;SDS011;62338;48.832;9.422;2023-05-10T08:51:50;1.83;;;0.87;;
4786;SDS011;62338;48.832;9.422;2023-05-10T08:53:55;3.53;;;1.13;;
4786;SDS011;62338;48.832;9.422;2023-05-10T08:55:57;2.30;;;1.20;;
4786;SDS011;62338;48.832;9.422;2023-05-10T08:58:00;1.83;;;0.93;;
4786;SDS011;62338;48.832;9.422;2023-05-10T09:00:02;1.90;;;1.03;;
4786;SDS011;62338;48.832;9.422;2023-05-10T09:02:05;1.80;;;0.90;;
4786;SDS011;62338;48.832;9.422;2023-05-10T09:04:07;2.40;;;1.10;;
4786;SDS011;62338;48.832;9.422;2023-05-10T09:06:08;1.90;;;0.90;;
4786;SDS011;62338;48.832;9.422;2023-05-10T09:08:14;1.70;;;0.80;;
4786;SDS011;62338;48.832;9.422;2023-05-10T09:10:17;1.90;;;0.83;;
4786;SDS011;62338;48.832;9.422;2023-05-10T09:12:20;3.97;;;1.60;;
4786;SDS011;62338;48.832;9.422;2023-05-10T09:14:22;1.67;;;0.80;;
4786;SDS011;62338;48.832;9.422;2023-05-10T09:16:25;1.90;;;0.97;;
4786;SDS011;62338;48.832;9.422;2023-05-10T09:18:27;3.17;;;1.30;;
4786;SDS011;62338;48.832;9.422;2023-05-10T09:20:29;1.80;;;0.80;;
4786;SDS011;62338;48.832;9.422;2023-05-10T09:22:32;1.50;;;0.70;;
4786;SDS011;62338;48.832;9.422;2023-05-10T09:24:34;7.80;;;0.83;;
4786;SDS011;62338;48.832;9.422;2023-05-10T09:26:47;1.90;;;0.70;;
4786;SDS011;62338;48.832;9.422;2023-05-10T09:28:56;2.90;;;0.80;;
4786;SDS011;62338;48.832;9.422;2023-05-10T09:31:00;3.10;;;0.80;;
4786;SDS011;62338;48.832;9.422;2023-05-10T09:33:02;2.53;;;1.20;;
4786;SDS011;62338;48.832;9.422;2023-05-10T09:35:11;1.73;;;0.80;;
4786;SDS011;62338;48.832;9.422;2023-05-10T09:37:13;2.23;;;0.80;;
4786;SDS011;62338;48.832;9.422;2023-05-10T09:39:15;2.20;;;0.90;;
4786;SDS011;62338;48.832;9.422;2023-05-10T09:41:23;1.70;;;0.70;;
4786;SDS011;62338;48.832;9.422;2023-05-10T09:43:26;2.33;;;0.90;;
4786;SDS011;62338;48.832;9.422;2023-05-10T09:45:29;1.90;;;0.80;;
4786;SDS011;62338;48.832;9.422;2023-05-10T09:47:32;1.80;;;0.80;;
4786;SDS011;62338;48.832;9.422;2023-05-10T09:49:38;1.87;;;0.83;;
4786;SDS011;62338;48.832;9.422;2023-05-10T09:51:40;1.80;;;0.80;;
4786;SDS011;62338;48.832;9.422;2023-05-10T09:53:42;1.80;;;0.80;;
4786;SDS011;62338;48.832;9.422;2023-05-10T09:55:44;1.90;;;0.73;;
4786;SDS011;62338;48.832;9.422;2023-05-10T09:57:47;1.80;;;0.83;;
4786;SDS011;62338;48.832;9.422;2023-05-10T09:59:50;2.73;;;0.87;;
4786;SDS011;62338;48.832;9.422;2023-05-10T10:01:53;2.10;;;0.80;;
4786;SDS011;62338;48.832;9.422;2023-05-10T10:03:57;2.00;;;0.87;;
4786;SDS011;62338;48.832;9.422;2023-05-10T10:05:59;1.83;;;0.80;;
4786;SDS011;62338;48.832;9.422;2023-05-10T10:08:04;1.60;;;0.70;;
4786;SDS011;62338;48.832;9.422;2023-05-10T10:10:07;1.90;;;0.80;;
4786;SDS011;62338;48.832;9.422;2023-05-10T10:12:12;2.03;;;0.97;;
4786;SDS011;62338;48.832;9.422;2023-05-10T10:14:14;1.80;;;0.80;;
4786;SDS011;62338;48.832;9.422;2023-05-10T10:16:17;1.80;;;0.70;;
4786;SDS011;62338;48.832;9.422;2023-05-10T10:18:19;2.13;;;0.90;;
4786;SDS011;62338;48.832;9.422;2023-05-10T10:20:24;2.40;;;1.00;;
4786;SDS011;62338;48.832;9.422;2023-05-10T10:22:27;2.40;;;0.90;;
4786;SDS011;62338;48.832;9.422;2023-05-10T10:24:29;1.97;;;0.90;;
4786;SDS011;62338;48.832;9.422;2023-05-10T10:26:34;2.07;;;0.90;;
4786;SDS011;62338;48.832;9.422;2023-05-10T10:28:41;2.30;;;0.90;;
4786;SDS011;62338;48.832;9.422;2023-05-10T10:31:41;2.10;;;0.80;;
4786;SDS011;62338;48.832;9.422;2023-05-10T10:36:14;3.13;;;0.90;;
4786;SDS011;62338;48.832;9.422;2023-05-10T10:38:16;3.60;;;0.90;;
4786;SDS011;62338;48.832;9.422;2023-05-10T10:42:43;2.00;;;0.80;;
4786;SDS011;62338;48.832;9.422;2023-05-10T10:44:47;2.30;;;0.90;;
4786;SDS011;62338;48.832;9.422;2023-05-10T10:46:58;2.73;;;1.00;;
4786;SDS011;62338;48.832;9.422;2023-05-10T10:49:31;1.80;;;0.80;;
4786;SDS011;62338;48.832;9.422;2023-05-10T10:51:38;4.53;;;1.00;;
4786;SDS011;62338;48.832;9.422;2023-05-10T10:53:40;5.30;;;1.00;;
4786;SDS011;62338;48.832;9.422;2023-05-10T10:55:48;1.80;;;0.80;;
4786;SDS011;62338;48.832;9.422;2023-05-10T10:57:53;2.93;;;1.47;;
4786;SDS011;62338;48.832;9.422;2023-05-10T11:00:24;1.80;;;0.80;;
4786;SDS011;62338;48.832;9.422;2023-05-10T11:04:47;2.07;;;1.00;;
4786;SDS011;62338;48.832;9.422;2023-05-10T11:06:49;1.73;;;0.80;;
4786;SDS011;62338;48.832;9.422;2023-05-10T11:08:50;2.30;;;1.10;;
4786;SDS011;62338;48.832;9.422;2023-05-10T11:11:02;2.40;;;1.00;;
4786;SDS011;62338;48.832;9.422;2023-05-10T11:13:08;1.60;;;0.70;;
4786;SDS011;62338;48.832;9.422;2023-05-10T11:15:11;1.53;;;0.77;;
4786;SDS011;62338;48.832;9.422;2023-05-10T11:17:22;1.70;;;0.80;;
4786;SDS011;62338;48.832;9.422;2023-05-10T11:19:27;1.87;;;0.80;;
4786;SDS011;62338;48.832;9.422;2023-05-10T11:21:32;3.83;;;0.80;;
4786;SDS011;62338;48.832;9.422;2023-05-10T11:23:54;3.43;;;0.80;;
4786;SDS011;62338;48.832;9.422;2023-05-10T11:25:58;4.70;;;0.80;;
4786;SDS011;62338;48.832;9.422;2023-05-10T11:28:02;2.53;;;0.90;;
4786;SDS011;62338;48.832;9.422;2023-05-10T11:30:06;1.60;;;0.70;;
4786;SDS011;62338;48.832;9.422;2023-05-10T11:32:08;1.80;;;0.80;;
4786;SDS011;62338;48.832;9.422;2023-05-10T11:34:10;1.60;;;0.70;;
4786;SDS011;62338;48.832;9.422;2023-05-10T11:36:14;2.07;;;0.80;;
4786;SDS011;62338;48.832;9.422;2023-05-10T11:38:16;1.80;;;0.90;;
4786;SDS011;62338;48.832;9.422;2023-05-10T11:40:18;2.47;;;0.80;;
4786;SDS011;62338;48.832;9.422;2023-05-10T11:42:22;2.20;;;0.80;;
4786;SDS011;62338;48.832;9.422;2023-05-10T11:44:28;3.37;;;1.07;;
4786;SDS011;62338;48.832;9.422;2023-05-10T11:46:33;1.93;;;0.80;;
4786;SDS011;62338;48.832;9.422;2023-05-10T11:48:36;2.53;;;1.43;;
4786;SDS011;62338;48.832;9.422;2023-05-10T11:50:39;1.83;;;0.87;;
4786;SDS011;62338;48.832;9.422;2023-05-10T11:52:41;2.83;;;0.80;;
4786;SDS011;62338;48.832;9.422;2023-05-10T11:54:52;2.30;;;0.80;;
4786;SDS011;62338;48.832;9.422;2023-05-10T11:56:55;2.90;;;0.97;;
4786;SDS011;62338;48.832;9.422;2023-05-10T11:58:57;4.53;;;0.80;;
4786;SDS011;62338;48.832;9.422;2023-05-10T12:00:59;5.20;;;1.00;;
4786;SDS011;62338;48.832;9.422;2023-05-10T12:03:02;1.60;;;0.80;;
4786;SDS011;62338;48.832;9.422;2023-05-10T12:05:04;2.07;;;0.90;;
4786;SDS011;62338;48.832;9.422;2023-05-10T12:07:07;1.70;;;0.80;;
4786;SDS011;62338;48.832;9.422;2023-05-10T12:09:10;1.63;;;0.80;;
4786;SDS011;62338;48.832;9.422;2023-05-10T12:11:12;1.80;;;0.73;;
4786;SDS011;62338;48.832;9.422;2023-05-10T12:13:18;3.43;;;1.10;;
4786;SDS011;62338;48.832;9.422;2023-05-10T12:15:22;1.87;;;1.00;;
4786;SDS011;62338;48.832;9.422;2023-05-10T12:17:28;1.80;;;0.80;;
4786;SDS011;62338;48.832;9.422;2023-05-10T12:19:37;3.00;;;0.97;;
4786;SDS011;62338;48.832;9.422;2023-05-10T12:21:39;2.43;;;0.90;;
4786;SDS011;62338;48.832;9.422;2023-05-10T12:23:42;1.80;;;0.80;;
4786;SDS011;62338;48.832;9.422;2023-05-10T12:25:47;4.70;;;0.87;;
4786;SDS011;62338;48.832;9.422;2023-05-10T12:27:50;2.10;;;1.00;;
4786;SDS011;62338;48.832;9.422;2023-05-10T12:29:53;2.00;;;0.90;;
4786;SDS011;62338;48.832;9.422;2023-05-10T12:31:56;2.07;;;0.80;;
4786;SDS011;62338;48.832;9.422;2023-05-10T12:33:59;2.83;;;1.10;;
4786;SDS011;62338;48.832;9.422;2023-05-10T12:36:01;2.30;;;1.20;;
4786;SDS011;62338;48.832;9.422;2023-05-10T12:38:22;2.37;;;1.20;;
4786;SDS011;62338;48.832;9.422;2023-05-10T12:40:29;4.50;;;1.60;;
4786;SDS011;62338;48.832;9.422;2023-05-10T12:42:32;5.70;;;1.60;;
4786;SDS011;62338;48.832;9.422;2023-05-10T12:44:33;2.20;;;1.00;;
4786;SDS011;62338;48.832;9.422;2023-05-10T12:46:35;2.20;;;1.17;;
4786;SDS011;62338;48.832;9.422;2023-05-10T12:48:37;2.67;;;1.10;;
4786;SDS011;62338;48.832;9.422;2023-05-10T12:50:40;7.07;;;1.20;;
4786;SDS011;62338;48.832;9.422;2023-05-10T12:52:42;2.00;;;1.00;;
4786;SDS011;62338;48.832;9.422;2023-05-10T12:54:44;2.20;;;1.00;;